Time;durP1;ratioP1;P1;durP2;ratioP2;P2;SDS_P1;SDS_P2;PMS_P1;PMS_P2;Temp;Humidity;BMP_temperature;BMP_pressure;BME280_temperature;BME280_humidity;BME280_pressure;Samples;Min_cycle;Max_cycle;Signal;HPM_P1;HPM_P2
2021/04/28 00:00:27;;;;;;;;;;;4.80;99.90;;;3.18;69.58;100305.44;3502063;40;102180;-41
2021/04/28 00:02:56;;;;;;;8.18;3.70;;;4.80;99.90;;;3.15;68.76;100303.13;3510496;40;103359;-41
2021/04/28 00:05:24;;;;;;;6.65;3.78;;;4.80;99.90;;;3.14;68.92;100293.34;3509226;40;103395;-40
2021/04/28 00:07:53;;;;;;;;;;;4.80;99.90;;;3.14;69.90;100302.28;3493778;40;104085;-40
2021/04/28 00:10:27;;;;;;;6.13;3.60;;;4.80;99.90;;;3.10;70.77;100284.78;3501142;40;102121;-41
2021/04/28 00:12:55;;;;;;;6.78;3.72;;;4.80;99.90;;;3.09;68.49;100287.66;3501376;40;104058;-41
2021/04/28 00:15:28;;;;;;;6.78;3.80;;;4.80;99.90;;;3.10;68.87;100287.50;3517050;40;103078;-40
2021/04/28 00:17:55;;;;;;;5.75;3.58;;;4.80;99.90;;;3.09;68.04;100290.34;3517113;40;104864;-41
2021/04/28 00:20:24;;;;;;;6.40;3.97;;;4.70;99.90;;;3.09;68.81;100284.97;3493952;40;102432;-41
2021/04/28 00:22:52;;;;;;;7.20;4.03;;;4.70;99.90;;;3.08;68.25;100286.84;3493081;40;102318;-41
2021/04/28 00:25:23;;;;;;;7.05;3.97;;;4.70;99.90;;;3.08;69.22;100285.97;3501368;40;103320;-41
2021/04/28 00:27:50;;;;;;;9.18;4.10;;;4.70;99.90;;;3.07;68.67;100281.59;3508905;40;102367;-41
2021/04/28 00:30:19;;;;;;;;;;;4.70;99.90;;;3.05;69.05;100278.25;3510006;40;103205;-41
2021/04/28 00:32:49;;;;;;;7.50;4.10;;;4.70;99.90;;;3.05;68.28;100279.09;3501356;40;103936;-40
2021/04/28 00:35:19;;;;;;;8.43;3.95;;;4.70;99.90;;;3.03;69.22;100267.63;3508912;40;103099;-41
2021/04/28 00:37:48;;;;;;;6.38;4.05;;;4.70;99.90;;;3.02;69.20;100272.19;3501126;40;104709;-41
2021/04/28 00:40:23;;;;;;;7.20;3.85;;;4.60;99.90;;;3.00;69.50;100267.97;3508885;40;104207;-40
2021/04/28 00:42:52;;;;;;;7.05;3.90;;;4.70;99.90;;;2.97;68.95;100263.81;3509129;40;104104;-41
2021/04/28 00:45:24;;;;;;;7.68;4.28;;;4.60;99.90;;;2.96;69.22;100267.50;3508818;40;102568;-41
2021/04/28 00:47:55;;;;;;;6.97;4.07;;;4.60;99.90;;;2.95;68.90;100260.44;3501078;40;105436;-41
2021/04/28 00:50:32;;;;;;;6.65;4.13;;;4.60;99.90;;;2.96;68.99;100266.66;3492862;40;102278;-41
2021/04/28 00:53:04;;;;;;;8.50;4.13;;;4.60;99.90;;;2.91;68.56;100260.97;3492902;40;104103;-41
2021/04/28 00:55:34;;;;;;;7.22;4.32;;;4.50;99.90;;;2.89;68.32;100255.75;3508786;40;102440;-41
2021/04/28 00:58:05;;;;;;;6.35;4.18;;;4.50;99.90;;;2.82;69.28;100247.53;3509020;40;102979;-41
2021/04/28 01:00:35;;;;;;;7.85;4.47;;;4.40;99.90;;;2.77;69.55;100247.22;3509751;40;102257;-40
2021/04/28 01:03:05;;;;;;;7.32;4.65;;;4.40;99.90;;;2.74;69.06;100244.88;3518451;40;102313;-41
2021/04/28 01:05:35;;;;;;;9.50;4.47;;;4.40;99.90;;;2.71;68.57;100234.44;3510049;40;102207;-40
2021/04/28 01:08:05;;;;;;;8.02;4.45;;;4.40;99.90;;;2.72;68.93;100238.81;3502361;40;103185;-41
2021/04/28 01:10:37;;;;;;;7.10;4.25;;;4.30;99.90;;;2.69;68.78;100233.78;3510065;40;102702;-41
2021/04/28 01:13:08;;;;;;;7.22;4.18;;;4.30;99.90;;;2.67;68.82;100242.06;3510641;40;104152;-41
2021/04/28 01:15:36;;;;;;;7.63;4.55;;;4.30;99.90;;;2.62;68.97;100236.31;3493943;40;102499;-40
2021/04/28 01:18:11;;;;;;;6.60;4.10;;;4.30;99.90;;;2.56;68.65;100239.72;3503554;40;102288;-41
2021/04/28 01:20:39;;;;;;;;;;;4.20;99.90;;;2.52;69.38;100239.25;3494465;40;102461;-40
2021/04/28 01:23:12;;;;;;;8.68;4.13;;;4.20;99.90;;;2.49;69.41;100238.75;3502495;40;102382;-40
2021/04/28 01:25:41;;;;;;;7.55;4.35;;;4.20;99.90;;;2.40;68.90;100225.31;3502296;40;103676;-41
2021/04/28 01:28:14;;;;;;;8.20;4.57;;;4.10;99.90;;;2.42;69.06;100231.38;3502576;40;103113;-40
2021/04/28 01:30:58;;;;;;;9.10;4.80;;;4.10;99.90;;;2.39;69.97;100233.56;3664098;22;103079;-39
2021/04/28 01:33:34;;;;;;;9.60;4.18;;;4.10;99.90;;;2.36;69.65;100234.72;3512506;39;102402;-42
2021/04/28 01:36:07;;;;;;;7.68;4.20;;;4.10;99.90;;;2.32;69.25;100228.03;3512677;39;103166;-41
2021/04/28 01:38:41;;;;;;;8.77;4.30;;;4.00;99.90;;;2.29;69.76;100229.22;3520868;39;105258;-42
2021/04/28 01:41:10;;;;;;;7.88;4.95;;;4.00;99.90;;;2.25;70.24;100227.03;3510888;40;104163;-41
2021/04/28 01:43:43;;;;;;;7.50;4.50;;;4.00;99.90;;;2.22;70.46;100230.91;3518768;40;103279;-41
2021/04/28 01:46:15;;;;;;;7.97;4.30;;;3.90;99.90;;;2.19;70.71;100225.88;3503040;40;102943;-42
2021/04/28 01:48:45;;;;;;;8.15;4.57;;;3.90;99.90;;;2.13;71.28;100222.03;3510823;40;102212;-41
2021/04/28 01:51:15;;;;;;;8.60;4.40;;;3.80;99.90;;;2.08;71.15;100220.88;3510712;40;102309;-41
2021/04/28 01:53:43;;;;;;;7.97;4.80;;;3.80;99.90;;;2.09;71.44;100228.75;3494128;40;103133;-41
2021/04/28 01:56:14;;;;;;;9.80;4.82;;;3.80;99.90;;;2.08;70.47;100232.44;3494567;40;102252;-41
2021/04/28 01:58:54;;;;;;;9.30;4.50;;;3.80;99.90;;;2.03;71.15;100223.22;3503815;40;104132;-41
2021/04/28 02:01:35;;;;;;;9.02;4.95;;;3.70;99.90;;;1.98;71.54;100226.44;3511386;40;102171;-41
2021/04/28 02:04:04;;;;;;;8.88;4.90;;;3.70;99.90;;;1.93;72.26;100218.03;3510599;40;105509;-41
2021/04/28 02:06:32;;;;;;;8.20;4.53;;;3.60;99.90;;;1.89;72.17;100225.59;3510221;40;102482;-41
2021/04/28 02:09:00;;;;;;;9.67;4.57;;;3.60;99.90;;;1.86;71.88;100223.25;3502437;40;103708;-41
2021/04/28 02:11:27;;;;;;;8.30;4.05;;;3.50;99.90;;;1.82;71.55;100222.72;3493224;40;102661;-41
2021/04/28 02:13:58;;;;;;;7.00;4.32;;;3.50;99.90;;;1.78;72.21;100220.56;3479225;40;103279;-41
2021/04/28 02:16:47;;;;;;;8.60;4.50;;;3.50;99.90;;;1.74;72.30;100219.25;3505229;40;102215;-41
2021/04/28 02:19:19;;;;;;;8.23;4.32;;;3.40;99.90;;;1.69;72.35;100223.25;3502713;40;102337;-42
2021/04/28 02:21:53;;;;;;;8.88;4.28;;;3.40;99.90;;;1.67;72.19;100224.44;3495422;40;102374;-41
2021/04/28 02:24:27;;;;;;;7.93;4.32;;;3.40;99.90;;;1.67;72.31;100224.44;3510630;40;102922;-41
2021/04/28 02:26:58;;;;;;;9.75;4.93;;;3.40;99.90;;;1.61;72.69;100223.25;3486351;40;103447;-41
2021/04/28 02:29:27;;;;;;;8.25;4.50;;;3.30;99.90;;;1.57;72.40;100220.06;3510877;40;103176;-42
2021/04/28 02:31:55;;;;;;;10.00;4.43;;;3.30;99.90;;;1.43;72.43;100199.25;3502370;40;102439;-42
2021/04/28 02:34:32;;;;;;;7.78;4.20;;;3.20;99.90;;;1.48;72.48;100215.69;3496223;40;102320;-41
2021/04/28 02:37:13;;;;;;;10.68;4.57;;;3.20;99.90;;;1.48;72.30;100221.06;3489935;40;102464;-41
2021/04/28 02:39:59;;;;;;;7.68;4.25;;;3.20;99.90;;;1.43;71.95;100215.38;3495949;40;105065;-41
2021/04/28 02:42:28;;;;;;;7.22;4.25;;;3.20;99.90;;;1.45;72.48;100218.72;3510625;40;104108;-41
2021/04/28 02:45:00;;;;;;;7.65;4.20;;;3.20;99.90;;;1.42;72.69;100211.81;3502841;40;102246;-41
2021/04/28 02:47:32;;;;;;;8.48;5.00;;;3.20;99.90;;;1.40;72.46;100202.25;3518908;40;102330;-43
2021/04/28 02:50:07;;;;;;;8.65;3.95;;;3.10;99.90;;;1.38;72.22;100204.28;3510733;40;102395;-41
2021/04/28 02:52:47;;;;;;;9.95;4.40;;;3.10;99.90;;;1.35;72.71;100205.44;3503846;40;102325;-41
2021/04/28 02:55:16;;;;;;;8.10;4.32;;;3.10;99.90;;;1.32;72.64;100204.94;3519399;40;104087;-41
2021/04/28 02:57:47;;;;;;;11.27;4.70;;;3.10;99.90;;;1.27;72.78;100206.28;3510894;40;102548;-41
2021/04/28 03:00:20;;;;;;;6.65;4.55;;;3.00;99.90;;;1.25;72.52;100196.72;3502362;40;104174;-41
2021/04/28 03:02:50;;;;;;;8.68;4.22;;;3.00;99.90;;;1.24;72.49;100205.78;3510308;40;102382;-41
2021/04/28 03:05:21;;;;;;;8.05;4.47;;;3.00;99.90;;;1.22;72.41;100205.94;3509924;40;102209;-41
2021/04/28 03:08:06;;;;;;;9.13;4.20;;;2.90;99.90;;;1.20;72.13;100199.88;3511962;40;102610;-41
2021/04/28 03:10:36;;;;;;;8.45;4.63;;;2.90;99.90;;;1.15;71.54;100196.88;3493804;40;102240;-41
2021/04/28 03:13:03;;;;;;;6.28;4.05;;;2.90;99.90;;;1.12;71.01;100199.88;3510437;40;102459;-41
2021/04/28 03:15:32;;;;;;;7.25;4.28;;;2.90;99.90;;;1.10;71.97;100194.66;3510171;40;104098;-41
2021/04/28 03:18:04;;;;;;;8.90;5.22;;;2.90;99.90;;;1.09;72.07;100197.53;3495425;40;102234;-41
2021/04/28 03:20:36;;;;;;;8.07;4.10;;;2.80;99.90;;;1.09;71.88;100194.84;3510533;40;103885;-41
2021/04/28 03:23:07;;;;;;;9.18;4.60;;;2.80;99.90;;;1.09;72.63;100190.31;3502047;40;102296;-41
2021/04/28 03:25:34;;;;;;;7.75;4.55;;;2.80;99.90;;;1.06;72.38;100192.47;3510033;40;103302;-41
2021/04/28 03:28:07;;;;;;;7.25;4.20;;;2.80;99.90;;;1.04;72.36;100197.16;3502892;40;102106;-41
2021/04/28 03:30:35;;;;;;;7.18;3.90;;;2.80;99.90;;;1.01;73.26;100195.69;3502314;40;103214;-41
2021/04/28 03:33:04;;;;;;;8.02;4.57;;;2.80;99.90;;;1.00;73.34;100196.69;3494161;40;102501;-41
2021/04/28 03:35:32;;;;;;;8.57;4.75;;;2.70;99.90;;;0.98;74.12;100194.16;3509940;40;103177;-42
2021/04/28 03:38:09;;;;;;;8.50;4.63;;;2.70;99.90;;;0.96;74.28;100188.09;3503326;40;102238;-41
2021/04/28 03:40:38;;;;;;;10.65;4.82;;;2.70;99.90;;;0.95;74.49;100199.84;3493918;40;103303;-41
2021/04/28 03:43:05;;;;;;;8.20;5.00;;;2.70;99.90;;;0.93;74.48;100193.81;3494447;40;102190;-41
2021/04/28 03:45:33;;;;;;;7.25;4.72;;;2.70;99.90;;;0.87;74.76;100194.47;3501942;40;104027;-41
2021/04/28 03:48:02;;;;;;;10.00;4.53;;;2.70;99.90;;;0.88;74.77;100190.78;3486130;40;102550;-41
2021/04/28 03:50:31;;;;;;;9.32;4.70;;;2.60;99.90;;;0.82;74.61;100191.44;3510045;40;102422;-41
2021/04/28 03:53:08;;;;;;;9.75;4.93;;;2.60;99.90;;;0.81;74.63;100185.22;3495678;40;102328;-41
2021/04/28 03:55:40;;;;;;;7.40;4.07;;;2.60;99.90;;;0.71;75.02;100174.63;3510768;40;103122;-41
2021/04/28 03:58:07;;;;;;;7.85;4.60;;;2.60;99.90;;;0.80;74.79;100186.22;3510000;40;102474;-41
2021/04/28 04:00:36;;;;;;;7.97;4.63;;;2.50;99.90;;;0.80;74.81;100190.78;3502375;40;102497;-41
2021/04/28 04:03:17;;;;;;;9.15;4.55;;;2.50;99.90;;;0.78;75.15;100192.75;3496568;40;102467;-41
2021/04/28 04:05:55;;;;;;;9.68;4.78;;;2.50;99.90;;;0.73;75.23;100184.34;3503305;40;102316;-41
2021/04/28 04:08:32;;;;;;;7.38;4.53;;;2.50;99.90;;;0.74;75.21;100188.72;3496021;40;103502;-41
2021/04/28 04:10:59;;;;;;;8.30;4.82;;;2.50;99.90;;;0.73;74.79;100187.88;3509444;40;102378;-41
2021/04/28 04:13:27;;;;;;;9.35;5.07;;;2.50;99.90;;;0.71;75.53;100182.66;3485536;40;102294;-41
2021/04/28 04:15:54;;;;;;;8.27;4.53;;;2.50;99.90;;;0.74;75.89;100183.34;3510247;40;102272;-41
2021/04/28 04:18:21;;;;;;;9.35;4.90;;;2.50;99.90;;;0.71;76.29;100179.97;3493876;40;102382;-42
2021/04/28 04:20:52;;;;;;;11.70;4.88;;;2.40;99.90;;;0.68;76.44;100183.00;3502309;40;104276;-41
2021/04/28 04:23:27;;;;;;;8.45;4.72;;;2.40;99.90;;;0.69;76.58;100183.84;3502981;40;102414;-41
2021/04/28 04:26:04;;;;;;;8.52;5.05;;;2.40;99.90;;;0.67;76.54;100183.19;3519202;40;102706;-41
2021/04/28 04:28:52;;;;;;;8.38;4.68;;;2.40;99.90;;;0.68;77.21;100190.22;3497780;40;102779;-41
2021/04/28 04:31:40;;;;;;;8.83;4.80;;;2.40;99.90;;;0.69;77.14;100184.69;3497255;40;102205;-41
2021/04/28 04:34:17;;;;;;;11.80;5.13;;;2.40;99.90;;;0.73;77.62;100187.03;3503069;40;102566;-41
2021/04/28 04:36:54;;;;;;;10.15;5.22;;;2.40;99.90;;;0.71;77.18;100182.66;3511584;40;102247;-41
2021/04/28 04:39:31;;;;;;;8.48;5.13;;;2.40;99.90;;;0.77;77.74;100185.69;3504355;40;102173;-41
2021/04/28 04:42:10;;;;;;;8.70;4.82;;;2.40;99.90;;;0.83;77.99;100193.13;3519246;40;104033;-41
2021/04/28 04:44:45;;;;;;;10.40;5.53;;;2.50;99.90;;;0.89;77.70;100186.22;3496290;40;102265;-41
2021/04/28 04:47:15;;;;;;;12.13;6.10;;;2.50;99.90;;;0.88;77.69;100179.19;3511291;40;102294;-41
2021/04/28 04:49:43;;;;;;;9.18;5.22;;;2.60;99.90;;;1.00;77.61;100191.31;3510928;40;103326;-41
2021/04/28 04:52:12;;;;;;;11.10;5.28;;;2.70;99.90;;;1.05;77.29;100190.78;3511225;40;103237;-41
2021/04/28 04:54:39;;;;;;;12.23;6.18;;;2.70;99.90;;;1.13;77.49;100197.03;3510624;40;102335;-42
2021/04/28 04:57:07;;;;;;;10.65;5.30;;;2.80;99.90;;;1.21;76.21;100190.81;3495044;40;102287;-41
2021/04/28 04:59:34;;;;;;;9.18;5.40;;;2.80;99.90;;;1.25;76.82;100188.66;3494777;40;102485;-41
2021/04/28 05:02:01;;;;;;;8.93;5.20;;;2.80;99.90;;;1.32;76.98;100191.50;3502562;40;103084;-41
2021/04/28 05:04:29;;;;;;;12.50;5.30;;;2.90;99.90;;;1.38;76.36;100193.53;3502460;40;105067;-41
2021/04/28 05:06:56;;;;;;;10.57;5.07;;;3.00;99.90;;;1.36;76.37;100185.63;3510815;40;103990;-41
2021/04/28 05:09:23;;;;;;;10.93;5.47;;;3.00;99.90;;;1.42;76.05;100193.00;3502191;40;102868;-41
2021/04/28 05:11:50;;;;;;;12.13;5.20;;;3.10;99.90;;;1.50;76.08;100196.72;3511263;40;104013;-41
2021/04/28 05:14:17;;;;;;;11.30;5.63;;;3.10;99.90;;;1.61;75.58;100192.84;3486395;40;103453;-42
2021/04/28 05:16:48;;;;;;;11.85;5.90;;;3.20;99.90;;;1.71;75.30;100197.03;3510677;40;102315;-42
2021/04/28 05:19:15;;;;;;;9.73;5.65;;;3.30;99.90;;;1.82;75.34;100195.84;3510872;40;102098;-41
2021/04/28 05:21:43;;;;;;;11.13;5.68;;;3.40;99.90;;;1.90;75.56;100194.97;3502858;40;104870;-43
2021/04/28 05:24:11;;;;;;;9.82;5.40;;;3.40;99.90;;;2.06;74.59;100201.34;3502314;40;102626;-41
2021/04/28 05:26:48;;;;;;;10.18;5.88;;;3.50;99.90;;;2.22;73.86;100211.25;3511992;40;105060;-41
2021/04/28 05:29:15;;;;;;;9.32;5.40;;;3.70;99.90;;;2.39;72.40;100194.03;3511115;40;102122;-42
2021/04/28 05:31:42;;;;;;;10.68;5.80;;;3.80;99.90;;;2.56;72.05;100199.31;3510805;40;105664;-41
2021/04/28 05:34:09;;;;;;;10.48;5.53;;;4.00;99.90;;;2.80;69.53;100200.22;3510042;40;103184;-41
2021/04/28 05:36:36;;;;;;;10.40;5.35;;;4.20;99.90;;;3.06;68.66;100196.38;3487033;40;102217;-41
2021/04/28 05:39:04;;;;;;;9.15;5.38;;;4.40;99.90;;;3.26;68.07;100199.44;3510643;40;102491;-41
2021/04/28 05:41:31;;;;;;;9.48;5.57;;;4.60;99.90;;;3.43;68.75;100195.59;3510619;40;103072;-41
2021/04/28 05:43:58;;;;;;;13.63;5.82;;;4.80;99.90;;;3.62;68.12;100196.13;3510154;40;103294;-41
2021/04/28 05:46:26;;;;;;;9.30;5.18;;;5.00;99.90;;;3.81;67.43;100186.66;3493885;40;102583;-41
2021/04/28 05:48:53;;;;;;;7.72;5.22;;;5.20;99.90;;;4.13;67.63;100192.75;3502756;40;102679;-42
2021/04/28 05:51:20;;;;;;;8.68;5.55;;;5.40;99.90;;;4.44;66.66;100180.91;3502751;40;104236;-41
2021/04/28 05:53:47;;;;;;;10.07;5.82;;;5.60;99.90;;;4.79;66.81;100187.56;3510281;40;103403;-42
2021/04/28 05:56:14;;;;;;;13.68;5.95;;;5.90;99.90;;;5.11;67.05;100188.13;3510600;40;105168;-42
2021/04/28 05:58:41;;;;;;;8.90;5.65;;;6.20;99.90;;;5.42;64.38;100185.06;3494548;40;102480;-41
2021/04/28 06:01:08;;;;;;;11.48;5.57;;;6.50;99.90;;;5.69;61.34;100187.19;3510473;40;104094;-40
2021/04/28 06:03:36;;;;;;;10.23;5.78;;;6.80;99.90;;;5.98;60.71;100177.19;3502692;40;102493;-40
2021/04/28 06:06:03;;;;;;;12.15;6.32;;;7.10;99.90;;;6.21;61.11;100178.84;3510568;40;104058;-40
2021/04/28 06:08:30;;;;;;;8.57;5.07;;;7.30;99.90;;;6.45;59.71;100174.78;3511132;40;102347;-40
2021/04/28 06:10:58;;;;;;;10.18;5.32;;;7.60;99.90;;;6.72;58.48;100172.19;3485716;40;104010;-40
2021/04/28 06:13:26;;;;;;;12.38;5.38;;;7.80;99.90;;;6.94;57.67;100181.03;3510074;40;103112;-40
2021/04/28 06:15:53;;;;;;;10.07;5.70;;;8.10;99.90;;;7.25;58.37;100176.06;3510655;40;102450;-40
2021/04/28 06:18:20;;;;;;;10.40;5.47;;;8.30;99.90;;;7.52;56.89;100176.09;3502570;40;103257;-40
2021/04/28 06:20:47;;;;;;;10.17;5.77;;;8.60;99.90;;;7.83;55.52;100178.19;3502693;40;103948;-40
2021/04/28 06:23:14;;;;;;;9.52;5.28;;;8.80;99.90;;;8.04;53.36;100171.69;3502420;40;102613;-39
2021/04/28 06:25:42;;;;;;;9.88;5.78;;;9.10;99.90;;;8.20;54.15;100175.81;3519348;40;103976;-40
2021/04/28 06:28:10;;;;;;;7.63;5.25;;;9.30;99.90;;;8.17;54.58;100173.53;3510926;40;103136;-40
2021/04/28 06:30:37;;;;;;;8.48;5.35;;;9.40;99.90;;;8.17;55.52;100167.28;3502308;40;105754;-40
2021/04/28 06:33:04;;;;;;;11.50;5.80;;;9.40;99.90;;;8.19;57.08;100168.72;3502239;40;102520;-40
2021/04/28 06:35:34;;;;;;;10.57;5.93;;;9.40;99.90;;;8.25;56.71;100163.50;3510453;40;104463;-40
2021/04/28 06:38:02;;;;;;;11.68;5.97;;;9.40;99.90;;;8.34;56.94;100175.81;3510776;40;102500;-40
2021/04/28 06:40:29;;;;;;;9.98;5.10;;;9.50;99.90;;;8.39;56.41;100164.28;3510173;40;104037;-40
2021/04/28 06:42:56;;;;;;;12.40;5.60;;;9.50;99.90;;;8.43;56.68;100170.97;3502476;40;102169;-40
2021/04/28 06:45:23;;;;;;;9.57;5.20;;;9.60;99.90;;;8.56;56.84;100159.25;3502095;40;102529;-39
2021/04/28 06:47:53;;;;;;;8.68;5.95;;;9.70;99.90;;;8.70;57.60;100160.84;3502821;40;102528;-40
2021/04/28 06:50:20;;;;;;;10.00;5.30;;;9.80;99.90;;;8.98;56.13;100162.38;3502452;40;102183;-40
2021/04/28 06:52:47;;;;;;;8.27;5.30;;;10.00;99.90;;;9.35;54.97;100168.00;3502593;40;102324;-41
2021/04/28 06:55:15;;;;;;;9.13;5.57;;;10.30;99.90;;;9.66;53.56;100161.91;3519648;40;104568;-41
2021/04/28 06:57:55;;;;;;;9.80;5.60;;;10.60;99.90;;;9.77;53.40;100158.44;3503669;40;102370;-40
2021/04/28 07:00:28;;;;;;;9.85;5.43;;;10.80;99.90;;;9.94;51.68;100153.25;3519418;40;105119;-39
2021/04/28 07:02:57;;;;;;;9.52;5.40;;;11.00;99.90;;;10.15;52.41;100149.28;3519367;40;102085;-40
2021/04/28 07:05:26;;;;;;;13.18;5.45;;;11.20;99.90;;;10.35;51.41;100148.22;3510227;40;103117;-40
2021/04/28 07:07:55;;;;;;;10.60;5.60;;;11.40;99.90;;;10.55;50.85;100153.47;3510862;40;102804;-41
2021/04/28 07:10:23;;;;;;;8.32;5.32;;;11.50;99.90;;;10.74;48.14;100148.81;3518771;40;102270;-40
2021/04/28 07:12:51;;;;;;;8.90;5.53;;;11.70;99.40;;;11.05;49.33;100146.91;3510257;40;102333;-40
2021/04/28 07:15:19;;;;;;;9.50;5.55;;;11.90;99.90;;;11.39;51.45;100145.56;3501846;40;102614;-40
2021/04/28 07:17:47;;;;;;;;;;;12.20;99.90;;;11.64;46.13;100140.75;3520589;40;102211;-40
2021/04/28 07:20:16;;;;;;;9.73;5.43;;;12.50;98.30;;;11.83;44.80;100146.09;3510780;40;104155;-41
2021/04/28 07:22:43;;;;;;;10.13;5.47;;;12.70;96.40;;;12.03;43.08;100145.75;3510296;40;104870;-40
2021/04/28 07:25:12;;;;;;;12.45;5.60;;;12.90;94.20;;;12.36;42.60;100151.66;3502469;40;103379;-40
2021/04/28 07:27:41;;;;;;;;;;;13.20;93.40;;;12.60;41.05;100149.72;3520047;40;102322;-40
2021/04/28 07:30:11;;;;;;;9.95;5.70;;;13.40;90.50;;;12.84;40.63;100143.31;3659358;22;103103;-41
2021/04/28 07:32:40;;;;;;;8.98;5.30;;;13.60;88.80;;;13.11;39.70;100148.22;3544077;39;103233;-41
2021/04/28 07:35:11;;;;;;;10.85;5.90;;;13.90;86.20;;;13.21;37.68;100137.41;3548990;39;103987;-41
2021/04/28 07:37:38;;;;;;;10.90;5.82;;;14.10;79.20;;;13.48;38.58;100147.78;3549000;39;103197;-41
2021/04/28 07:40:08;;;;;;;11.52;6.28;;;14.20;79.30;;;13.62;37.85;100146.38;3533373;39;102301;-41
2021/04/28 07:42:35;;;;;;;10.32;5.88;;;14.40;77.70;;;13.69;38.83;100145.38;3547985;39;104298;-41
2021/04/28 07:45:05;;;;;;;12.75;6.00;;;14.60;78.30;;;13.66;37.54;100142.06;3548694;39;102268;-41
2021/04/28 07:47:32;;;;;;;9.55;4.97;;;14.60;73.40;;;13.91;37.14;100150.91;3548926;39;102387;-41
2021/04/28 07:50:16;;;;;;;9.15;5.03;;;14.70;73.20;;;14.02;37.11;100146.41;3548081;39;104121;-41
2021/04/28 07:52:49;;;;;;;9.00;5.40;;;14.80;71.10;;;14.13;36.56;100145.47;3548285;39;102306;-41
2021/04/28 07:55:17;;;;;;;8.27;4.82;;;14.90;70.40;;;14.34;38.73;100141.09;3548952;39;103342;-41
2021/04/28 07:57:45;;;;;;;10.25;5.15;;;15.10;74.40;;;14.46;35.36;100129.19;3539503;39;102397;-41
2021/04/28 08:00:14;;;;;;;7.20;4.45;;;15.20;67.50;;;14.49;36.05;100136.91;3547987;39;104057;-41
2021/04/28 08:02:42;;;;;;;10.45;5.45;;;15.30;68.40;;;14.65;34.79;100130.50;3548678;39;102307;-41
2021/04/28 08:05:11;;;;;;;8.10;4.78;;;15.40;65.80;;;14.81;36.49;100126.03;3539196;39;104066;-41
2021/04/28 08:07:38;;;;;;;9.32;5.07;;;15.60;68.30;;;14.62;33.51;100128.25;3549167;39;102216;-42
2021/04/28 08:10:09;;;;;;;8.40;4.85;;;15.60;61.40;;;14.51;34.39;100127.31;3546185;39;102345;-41
2021/04/28 08:12:37;;;;;;;7.55;4.60;;;15.50;62.30;;;14.57;33.26;100128.22;3549313;39;103451;-41
2021/04/28 08:15:08;;;;;;;8.25;4.97;;;15.50;60.90;;;14.67;34.66;100128.31;3547276;39;103129;-41
2021/04/28 08:17:38;;;;;;;9.27;4.97;;;15.60;62.50;;;14.70;34.67;100126.13;3539610;39;102460;-41
2021/04/28 08:20:08;;;;;;;8.27;5.13;;;15.60;62.50;;;14.85;33.98;100120.88;3549219;39;103086;-41
2021/04/28 08:22:36;;;;;;;9.15;5.10;;;15.70;62.80;;;14.91;36.99;100119.81;3547896;39;102426;-41
2021/04/28 08:25:14;;;;;;;8.77;5.13;;;15.70;66.00;;;15.08;37.40;100114.22;3548276;39;102760;-40
2021/04/28 08:27:42;;;;;;;8.20;5.40;;;15.90;67.60;;;15.23;36.71;100112.72;3547648;39;102354;-41
2021/04/28 08:30:12;;;;;;;10.43;5.78;;;16.00;66.00;;;15.21;32.54;100115.72;3539370;39;102532;-39
2021/04/28 08:32:40;;;;;;;8.50;4.75;;;16.00;59.70;;;15.36;32.94;100111.44;3549290;39;102556;-41
2021/04/28 08:35:13;;;;;;;8.48;5.47;;;16.10;59.20;;;15.50;33.64;100111.84;3548601;39;105495;-38
2021/04/28 08:37:45;;;;;;;11.15;5.90;;;16.20;60.00;;;15.58;34.67;100105.84;3548211;39;103146;-42
2021/04/28 08:40:16;;;;;;;8.65;5.00;;;16.30;61.90;;;15.68;35.63;100105.94;3548988;39;104083;-39
2021/04/28 08:42:43;;;;;;;9.10;5.50;;;16.40;63.00;;;15.61;34.08;100112.75;3547391;39;102490;-42
2021/04/28 08:45:13;;;;;;;10.93;5.37;;;16.40;60.20;;;15.47;34.85;100113.19;3539386;39;104982;-40
2021/04/28 08:47:42;;;;;;;10.25;5.63;;;16.40;61.90;;;15.38;33.14;100106.53;3539463;39;104213;-39
2021/04/28 08:50:12;;;;;;;8.80;4.95;;;16.40;57.90;;;15.53;34.64;100108.56;3548470;39;102295;-42
2021/04/28 08:52:40;;;;;;;9.27;5.35;;;16.40;60.30;;;15.58;31.90;100110.53;3548476;39;102076;-40
2021/04/28 08:55:10;;;;;;;8.65;5.22;;;16.40;56.50;;;15.67;35.24;100112.53;3546905;39;103983;-41
2021/04/28 08:57:38;;;;;;;9.52;5.47;;;;;;;15.80;35.85;100111.25;3547687;39;102177;-40
2021/04/28 09:00:08;;;;;;;8.40;5.47;;;16.60;61.50;;;15.90;35.55;100102.22;3548444;39;103970;-40
2021/04/28 09:02:50;;;;;;;9.60;5.50;;;16.70;62.80;;;16.04;35.46;100112.78;3548473;39;104116;-40
2021/04/28 09:05:17;;;;;;;10.25;5.28;;;16.80;61.80;;;16.01;33.22;100103.13;3547960;39;102500;-40
2021/04/28 09:07:46;;;;;;;8.77;5.53;;;16.80;59.30;;;15.95;34.44;100107.78;3539113;39;104211;-42
2021/04/28 09:10:18;;;;;;;9.27;5.88;;;16.90;60.10;;;15.85;30.23;100102.19;3538553;39;104106;-41
2021/04/28 09:13:05;;;;;;;9.75;6.05;;;16.80;53.40;;;15.84;31.46;100096.94;3547050;39;102339;-42
2021/04/28 09:15:46;;;;;;;7.90;5.30;;;16.80;54.60;;;15.85;33.66;100095.88;3547785;39;104047;-41
2021/04/28 09:18:17;;;;;;;10.32;5.90;;;16.80;58.50;;;15.80;30.76;100091.16;3547726;39;102297;-41
2021/04/28 09:20:55;;;;;;;11.35;6.00;;;16.80;53.70;;;15.77;31.74;100086.19;3547559;39;103438;-42
2021/04/28 09:23:36;;;;;;;8.30;5.10;;;16.80;54.60;;;16.00;31.67;100084.16;3549469;39;103279;-42
2021/04/28 09:26:22;;;;;;;13.23;5.43;;;16.90;54.80;;;16.27;32.13;100077.66;3550296;39;103141;-44
2021/04/28 09:28:53;;;;;;;12.07;5.40;;;17.00;55.70;;;16.38;33.41;100079.34;3548863;39;102423;-41
2021/04/28 09:31:20;;;;;;;9.85;5.40;;;17.20;57.20;;;16.37;32.69;100072.19;3548703;39;104216;-42
2021/04/28 09:33:54;;;;;;;8.48;5.38;;;17.20;56.00;;;16.64;32.97;100074.78;3548550;39;102295;-41
2021/04/28 09:36:33;;;;;;;10.18;6.07;;;17.40;56.80;;;16.86;34.22;100070.13;3549068;39;102142;-42
2021/04/28 09:39:05;;;;;;;10.82;6.43;;;17.60;59.00;;;17.07;34.30;100069.06;3549495;39;103178;-42
2021/04/28 09:41:45;;;;;;;11.50;5.60;;;17.80;59.60;;;17.29;33.17;100069.91;3548976;39;103131;-41
2021/04/28 09:44:28;;;;;;;8.52;5.55;;;17.90;57.70;;;17.17;29.92;100067.41;3548528;39;102493;-41
2021/04/28 09:47:15;;;;;;;10.50;6.20;;;18.00;53.50;;;17.12;30.94;100065.50;3549641;39;102281;-41
2021/04/28 09:49:55;;;;;;;9.02;5.80;;;18.00;53.80;;;17.24;31.66;100051.44;3550173;39;102640;-39
2021/04/28 09:52:36;;;;;;;9.98;5.30;;;18.00;55.30;;;17.53;33.89;100057.19;3549684;39;103010;-38
2021/04/28 09:55:09;;;;;;;10.40;6.05;;;18.20;58.30;;;17.71;33.07;100049.44;3549216;39;102940;-41
2021/04/28 09:57:48;;;;;;;10.35;6.35;;;18.40;56.30;;;17.47;29.28;100044.53;3548330;39;103136;-41
2021/04/28 10:00:19;;;;;;;11.38;6.57;;;18.40;51.70;;;17.29;28.51;100048.69;3549902;39;102366;-42
2021/04/28 10:03:01;;;;;;;11.75;6.55;;;18.30;49.90;;;17.59;31.83;100049.75;3549434;39;103127;-41
2021/04/28 10:05:35;;;;;;;10.88;6.43;;;18.40;54.80;;;17.87;31.18;100033.69;3548064;39;102564;-40
2021/04/28 10:08:16;;;;;;;8.70;5.70;;;18.60;54.40;;;18.02;31.96;100032.00;3540569;39;103441;-41
2021/04/28 10:10:44;;;;;;;9.18;5.90;;;18.80;55.30;;;18.02;27.88;100030.06;3549140;39;102393;-41
2021/04/28 10:13:13;;;;;;;10.98;6.25;;;18.80;49.50;;;18.10;29.02;100034.19;3548780;39;103281;-41
2021/04/28 10:15:43;;;;;;;9.45;6.30;;;19.00;50.60;;;18.02;29.80;100029.22;3549568;39;102352;-39
2021/04/28 10:18:14;;;;;;;9.23;5.85;;;18.90;51.50;;;18.02;30.71;100027.31;3548608;39;105440;-41
2021/04/28 10:20:44;;;;;;;15.50;6.43;;;19.00;52.50;;;18.08;30.42;100028.94;3548752;39;102843;-40
2021/04/28 10:23:16;;;;;;;8.90;5.32;;;19.00;51.90;;;18.37;28.90;100019.16;3548586;39;102147;-39
2021/04/28 10:25:48;;;;;;;8.80;5.63;;;19.10;51.30;;;18.52;27.96;100019.03;3548132;39;102260;-41
2021/04/28 10:28:20;;;;;;;9.05;5.50;;;19.20;50.60;;;18.64;28.21;100013.16;3548848;39;103135;-41
2021/04/28 10:30:50;;;;;;;10.00;5.93;;;19.40;49.50;;;18.87;28.91;100010.00;3549377;39;103000;-40